sensor_id;sensor_type;location;lat;lon;timestamp;P1;durP1;ratioP1;P2;durP2;ratioP2
10029;SDS011;5055;52.054;8.524;2023-10-13T00:00:36;0.10;;;0.10;;
10029;SDS011;5055;52.054;8.524;2023-10-13T00:03:44;0.20;;;0.20;;
10029;SDS011;5055;52.054;8.524;2023-10-13T00:06:35;0.20;;;0.20;;
10029;SDS011;5055;52.054;8.524;2023-10-13T00:09:26;0.20;;;0.20;;
10029;SDS011;5055;52.054;8.524;2023-10-13T00:12:24;0.20;;;0.20;;
10029;SDS011;5055;52.054;8.524;2023-10-13T00:15:18;0.20;;;0.20;;
10029;SDS011;5055;52.054;8.524;2023-10-13T00:18:04;0.17;;;0.17;;
10029;SDS011;5055;52.054;8.524;2023-10-13T00:21:05;0.20;;;0.20;;
10029;SDS011;5055;52.054;8.524;2023-10-13T00:23:58;0.20;;;0.20;;
10029;SDS011;5055;52.054;8.524;2023-10-13T00:26:50;0.20;;;0.20;;
10029;SDS011;5055;52.054;8.524;2023-10-13T00:30:02;0.10;;;0.10;;
10029;SDS011;5055;52.054;8.524;2023-10-13T00:33:13;0.20;;;0.20;;
10029;SDS011;5055;52.054;8.524;2023-10-13T00:36:16;0.20;;;0.20;;
10029;SDS011;5055;52.054;8.524;2023-10-13T00:39:29;0.20;;;0.20;;
10029;SDS011;5055;52.054;8.524;2023-10-13T00:42:34;0.20;;;0.20;;
10029;SDS011;5055;52.054;8.524;2023-10-13T00:48:57;0.20;;;0.20;;
10029;SDS011;5055;52.054;8.524;2023-10-13T00:51:59;0.20;;;0.20;;
10029;SDS011;5055;52.054;8.524;2023-10-13T00:54:39;0.20;;;0.20;;
10029;SDS011;5055;52.054;8.524;2023-10-13T00:57:31;0.20;;;0.20;;
10029;SDS011;5055;52.054;8.524;2023-10-13T01:00:18;0.23;;;0.23;;
10029;SDS011;5055;52.054;8.524;2023-10-13T01:02:55;0.20;;;0.20;;
10029;SDS011;5055;52.054;8.524;2023-10-13T01:05:48;0.20;;;0.20;;
10029;SDS011;5055;52.054;8.524;2023-10-13T01:08:38;0.20;;;0.20;;
10029;SDS011;5055;52.054;8.524;2023-10-13T01:11:28;0.10;;;0.10;;
10029;SDS011;5055;52.054;8.524;2023-10-13T01:14:25;0.20;;;0.20;;
10029;SDS011;5055;52.054;8.524;2023-10-13T01:17:07;0.17;;;0.17;;
10029;SDS011;5055;52.054;8.524;2023-10-13T01:20:10;0.20;;;0.20;;
10029;SDS011;5055;52.054;8.524;2023-10-13T01:23:10;0.30;;;0.30;;
10029;SDS011;5055;52.054;8.524;2023-10-13T01:26:16;0.20;;;0.20;;
10029;SDS011;5055;52.054;8.524;2023-10-13T01:29:18;0.17;;;0.17;;
10029;SDS011;5055;52.054;8.524;2023-10-13T01:32:23;0.20;;;0.20;;
10029;SDS011;5055;52.054;8.524;2023-10-13T01:35:10;0.17;;;0.17;;
10029;SDS011;5055;52.054;8.524;2023-10-13T01:41:29;0.20;;;0.20;;
10029;SDS011;5055;52.054;8.524;2023-10-13T01:44:21;0.27;;;0.27;;
10029;SDS011;5055;52.054;8.524;2023-10-13T01:47:30;0.20;;;0.20;;
10029;SDS011;5055;52.054;8.524;2023-10-13T01:50:24;0.20;;;0.20;;
10029;SDS011;5055;52.054;8.524;2023-10-13T01:53:34;0.20;;;0.20;;
10029;SDS011;5055;52.054;8.524;2023-10-13T01:56:36;0.20;;;0.20;;
10029;SDS011;5055;52.054;8.524;2023-10-13T01:59:27;0.20;;;0.20;;
10029;SDS011;5055;52.054;8.524;2023-10-13T02:02:48;0.20;;;0.20;;
10029;SDS011;5055;52.054;8.524;2023-10-13T02:05:33;0.20;;;0.20;;
10029;SDS011;5055;52.054;8.524;2023-10-13T02:08:24;0.20;;;0.20;;
10029;SDS011;5055;52.054;8.524;2023-10-13T02:11:49;0.20;;;0.20;;
10029;SDS011;5055;52.054;8.524;2023-10-13T02:18:22;0.20;;;0.20;;
10029;SDS011;5055;52.054;8.524;2023-10-13T02:21:30;0.20;;;0.20;;
10029;SDS011;5055;52.054;8.524;2023-10-13T02:24:57;0.20;;;0.20;;
10029;SDS011;5055;52.054;8.524;2023-10-13T02:27:45;0.20;;;0.20;;
10029;SDS011;5055;52.054;8.524;2023-10-13T02:30:36;0.20;;;0.20;;
10029;SDS011;5055;52.054;8.524;2023-10-13T02:33:16;0.20;;;0.20;;
10029;SDS011;5055;52.054;8.524;2023-10-13T02:36:10;0.20;;;0.20;;
10029;SDS011;5055;52.054;8.524;2023-10-13T02:39:08;0.20;;;0.20;;
10029;SDS011;5055;52.054;8.524;2023-10-13T02:42:11;0.20;;;0.20;;
10029;SDS011;5055;52.054;8.524;2023-10-13T02:48:14;0.20;;;0.20;;
10029;SDS011;5055;52.054;8.524;2023-10-13T02:50:55;0.20;;;0.20;;
10029;SDS011;5055;52.054;8.524;2023-10-13T02:54:14;0.30;;;0.30;;
10029;SDS011;5055;52.054;8.524;2023-10-13T02:57:03;0.30;;;0.30;;
10029;SDS011;5055;52.054;8.524;2023-10-13T03:03:22;0.20;;;0.20;;
10029;SDS011;5055;52.054;8.524;2023-10-13T03:06:22;0.20;;;0.20;;
10029;SDS011;5055;52.054;8.524;2023-10-13T03:09:16;0.20;;;0.20;;
10029;SDS011;5055;52.054;8.524;2023-10-13T03:12:14;0.20;;;0.20;;
10029;SDS011;5055;52.054;8.524;2023-10-13T03:15:12;0.27;;;0.27;;
10029;SDS011;5055;52.054;8.524;2023-10-13T03:18:31;0.20;;;0.20;;
10029;SDS011;5055;52.054;8.524;2023-10-13T03:24:48;0.20;;;0.20;;
10029;SDS011;5055;52.054;8.524;2023-10-13T03:28:00;0.23;;;0.23;;
10029;SDS011;5055;52.054;8.524;2023-10-13T03:31:15;0.20;;;0.20;;
10029;SDS011;5055;52.054;8.524;2023-10-13T03:37:21;0.10;;;0.10;;
10029;SDS011;5055;52.054;8.524;2023-10-13T03:40:32;0.20;;;0.20;;
10029;SDS011;5055;52.054;8.524;2023-10-13T03:43:10;0.17;;;0.17;;
10029;SDS011;5055;52.054;8.524;2023-10-13T03:46:21;0.20;;;0.20;;
10029;SDS011;5055;52.054;8.524;2023-10-13T03:49:17;0.17;;;0.17;;
10029;SDS011;5055;52.054;8.524;2023-10-13T03:52:19;0.20;;;0.20;;
10029;SDS011;5055;52.054;8.524;2023-10-13T03:55:33;0.30;;;0.30;;
10029;SDS011;5055;52.054;8.524;2023-10-13T03:58:38;0.20;;;0.20;;
10029;SDS011;5055;52.054;8.524;2023-10-13T04:01:46;0.20;;;0.20;;
10029;SDS011;5055;52.054;8.524;2023-10-13T04:04:41;0.20;;;0.20;;
10029;SDS011;5055;52.054;8.524;2023-10-13T04:11:22;0.20;;;0.20;;
10029;SDS011;5055;52.054;8.524;2023-10-13T04:14:26;0.20;;;0.20;;
10029;SDS011;5055;52.054;8.524;2023-10-13T04:17:23;0.20;;;0.20;;
10029;SDS011;5055;52.054;8.524;2023-10-13T04:20:13;0.20;;;0.20;;
10029;SDS011;5055;52.054;8.524;2023-10-13T04:23:16;0.20;;;0.20;;
10029;SDS011;5055;52.054;8.524;2023-10-13T04:26:09;0.20;;;0.20;;
10029;SDS011;5055;52.054;8.524;2023-10-13T04:28:50;0.20;;;0.20;;
10029;SDS011;5055;52.054;8.524;2023-10-13T04:31:47;0.20;;;0.20;;
10029;SDS011;5055;52.054;8.524;2023-10-13T04:34:53;0.20;;;0.20;;
10029;SDS011;5055;52.054;8.524;2023-10-13T04:37:40;0.20;;;0.20;;
10029;SDS011;5055;52.054;8.524;2023-10-13T04:40:51;0.30;;;0.30;;
10029;SDS011;5055;52.054;8.524;2023-10-13T04:44:15;0.20;;;0.20;;
10029;SDS011;5055;52.054;8.524;2023-10-13T04:47:23;0.20;;;0.20;;
10029;SDS011;5055;52.054;8.524;2023-10-13T04:50:29;0.20;;;0.20;;
10029;SDS011;5055;52.054;8.524;2023-10-13T04:53:35;0.20;;;0.20;;
10029;SDS011;5055;52.054;8.524;2023-10-13T04:59:40;0.20;;;0.20;;
10029;SDS011;5055;52.054;8.524;2023-10-13T05:02:49;0.27;;;0.27;;
10029;SDS011;5055;52.054;8.524;2023-10-13T05:05:47;0.10;;;0.10;;
10029;SDS011;5055;52.054;8.524;2023-10-13T05:08:56;0.20;;;0.20;;
10029;SDS011;5055;52.054;8.524;2023-10-13T05:15:24;0.20;;;0.20;;
10029;SDS011;5055;52.054;8.524;2023-10-13T05:18:22;0.20;;;0.20;;
10029;SDS011;5055;52.054;8.524;2023-10-13T05:21:39;0.20;;;0.20;;
10029;SDS011;5055;52.054;8.524;2023-10-13T05:24:48;0.17;;;0.17;;
10029;SDS011;5055;52.054;8.524;2023-10-13T05:31:28;0.20;;;0.20;;
10029;SDS011;5055;52.054;8.524;2023-10-13T05:34:31;0.20;;;0.20;;
10029;SDS011;5055;52.054;8.524;2023-10-13T05:37:45;0.20;;;0.20;;
10029;SDS011;5055;52.054;8.524;2023-10-13T05:41:04;0.20;;;0.20;;
10029;SDS011;5055;52.054;8.524;2023-10-13T05:44:12;0.20;;;0.20;;
10029;SDS011;5055;52.054;8.524;2023-10-13T05:47:44;0.20;;;0.20;;
10029;SDS011;5055;52.054;8.524;2023-10-13T05:51:11;0.20;;;0.20;;
10029;SDS011;5055;52.054;8.524;2023-10-13T05:54:13;0.20;;;0.20;;
10029;SDS011;5055;52.054;8.524;2023-10-13T05:57:17;0.20;;;0.20;;
10029;SDS011;5055;52.054;8.524;2023-10-13T06:00:26;0.20;;;0.20;;
10029;SDS011;5055;52.054;8.524;2023-10-13T06:03:18;0.20;;;0.20;;
10029;SDS011;5055;52.054;8.524;2023-10-13T06:06:24;0.20;;;0.20;;
10029;SDS011;5055;52.054;8.524;2023-10-13T06:09:36;0.23;;;0.23;;
10029;SDS011;5055;52.054;8.524;2023-10-13T06:12:38;0.30;;;0.30;;
10029;SDS011;5055;52.054;8.524;2023-10-13T06:15:47;0.20;;;0.20;;
10029;SDS011;5055;52.054;8.524;2023-10-13T06:18:46;0.20;;;0.20;;
10029;SDS011;5055;52.054;8.524;2023-10-13T06:21:51;0.20;;;0.20;;
10029;SDS011;5055;52.054;8.524;2023-10-13T06:24:55;0.17;;;0.17;;
10029;SDS011;5055;52.054;8.524;2023-10-13T06:27:50;0.20;;;0.20;;
10029;SDS011;5055;52.054;8.524;2023-10-13T06:30:58;0.30;;;0.30;;
10029;SDS011;5055;52.054;8.524;2023-10-13T06:33:51;0.20;;;0.20;;
10029;SDS011;5055;52.054;8.524;2023-10-13T06:36:48;0.20;;;0.20;;
10029;SDS011;5055;52.054;8.524;2023-10-13T06:40:16;0.30;;;0.30;;
10029;SDS011;5055;52.054;8.524;2023-10-13T06:43:14;0.20;;;0.20;;
10029;SDS011;5055;52.054;8.524;2023-10-13T06:46:24;0.20;;;0.20;;
10029;SDS011;5055;52.054;8.524;2023-10-13T06:49:23;0.20;;;0.20;;
10029;SDS011;5055;52.054;8.524;2023-10-13T06:52:28;0.20;;;0.20;;
10029;SDS011;5055;52.054;8.524;2023-10-13T06:55:09;0.10;;;0.10;;
10029;SDS011;5055;52.054;8.524;2023-10-13T06:57:57;0.20;;;0.20;;
10029;SDS011;5055;52.054;8.524;2023-10-13T07:00:43;0.17;;;0.17;;
10029;SDS011;5055;52.054;8.524;2023-10-13T07:03:32;0.20;;;0.20;;
10029;SDS011;5055;52.054;8.524;2023-10-13T07:06:32;0.10;;;0.10;;
10029;SDS011;5055;52.054;8.524;2023-10-13T07:09:15;0.20;;;0.20;;
10029;SDS011;5055;52.054;8.524;2023-10-13T07:12:38;0.20;;;0.20;;
10029;SDS011;5055;52.054;8.524;2023-10-13T07:15:32;0.13;;;0.13;;
10029;SDS011;5055;52.054;8.524;2023-10-13T07:21:43;0.20;;;0.20;;
10029;SDS011;5055;52.054;8.524;2023-10-13T07:24:35;0.20;;;0.20;;
10029;SDS011;5055;52.054;8.524;2023-10-13T07:27:11;0.20;;;0.20;;
10029;SDS011;5055;52.054;8.524;2023-10-13T07:29:56;0.20;;;0.20;;
10029;SDS011;5055;52.054;8.524;2023-10-13T07:32:46;0.20;;;0.20;;
10029;SDS011;5055;52.054;8.524;2023-10-13T07:36:04;0.20;;;0.20;;
10029;SDS011;5055;52.054;8.524;2023-10-13T07:39:14;0.20;;;0.20;;
10029;SDS011;5055;52.054;8.524;2023-10-13T07:42:25;0.20;;;0.20;;
10029;SDS011;5055;52.054;8.524;2023-10-13T07:45:17;0.20;;;0.20;;
10029;SDS011;5055;52.054;8.524;2023-10-13T07:48:36;0.20;;;0.20;;
10029;SDS011;5055;52.054;8.524;2023-10-13T07:55:25;0.20;;;0.20;;
10029;SDS011;5055;52.054;8.524;2023-10-13T07:58:34;0.20;;;0.20;;
10029;SDS011;5055;52.054;8.524;2023-10-13T08:01:39;0.20;;;0.20;;
10029;SDS011;5055;52.054;8.524;2023-10-13T08:07:13;0.20;;;0.20;;
10029;SDS011;5055;52.054;8.524;2023-10-13T08:13:19;0.10;;;0.10;;
10029;SDS011;5055;52.054;8.524;2023-10-13T08:16:26;0.10;;;0.10;;
10029;SDS011;5055;52.054;8.524;2023-10-13T08:19:28;0.17;;;0.17;;
10029;SDS011;5055;52.054;8.524;2023-10-13T08:22:45;0.20;;;0.20;;
10029;SDS011;5055;52.054;8.524;2023-10-13T08:29:10;0.10;;;0.10;;
10029;SDS011;5055;52.054;8.524;2023-10-13T08:32:04;0.20;;;0.20;;
10029;SDS011;5055;52.054;8.524;2023-10-13T08:35:16;0.20;;;0.20;;
10029;SDS011;5055;52.054;8.524;2023-10-13T08:41:55;0.10;;;0.10;;
10029;SDS011;5055;52.054;8.524;2023-10-13T08:45:03;0.10;;;0.10;;
10029;SDS011;5055;52.054;8.524;2023-10-13T08:48:15;0.10;;;0.10;;
10029;SDS011;5055;52.054;8.524;2023-10-13T08:51:15;0.20;;;0.20;;
10029;SDS011;5055;52.054;8.524;2023-10-13T08:54:20;0.20;;;0.20;;
10029;SDS011;5055;52.054;8.524;2023-10-13T08:57:24;0.10;;;0.10;;
10029;SDS011;5055;52.054;8.524;2023-10-13T09:00:09;0.20;;;0.20;;
10029;SDS011;5055;52.054;8.524;2023-10-13T09:03:24;0.10;;;0.10;;
10029;SDS011;5055;52.054;8.524;2023-10-13T09:06:10;0.20;;;0.20;;
10029;SDS011;5055;52.054;8.524;2023-10-13T09:08:48;0.10;;;0.10;;
10029;SDS011;5055;52.054;8.524;2023-10-13T09:11:45;0.10;;;0.10;;
10029;SDS011;5055;52.054;8.524;2023-10-13T09:14:56;0.10;;;0.10;;
10029;SDS011;5055;52.054;8.524;2023-10-13T09:17:55;0.10;;;0.10;;
10029;SDS011;5055;52.054;8.524;2023-10-13T09:21:04;0.10;;;0.10;;
10029;SDS011;5055;52.054;8.524;2023-10-13T09:24:34;0.10;;;0.10;;
10029;SDS011;5055;52.054;8.524;2023-10-13T09:27:31;0.10;;;0.10;;
10029;SDS011;5055;52.054;8.524;2023-10-13T09:30:33;0.10;;;0.10;;
10029;SDS011;5055;52.054;8.524;2023-10-13T09:33:28;0.20;;;0.20;;
10029;SDS011;5055;52.054;8.524;2023-10-13T09:36:14;0.10;;;0.10;;
10029;SDS011;5055;52.054;8.524;2023-10-13T09:39:13;0.10;;;0.10;;
10029;SDS011;5055;52.054;8.524;2023-10-13T09:42:14;0.10;;;0.10;;
10029;SDS011;5055;52.054;8.524;2023-10-13T09:45:05;0.10;;;0.10;;
10029;SDS011;5055;52.054;8.524;2023-10-13T09:48:00;0.10;;;0.10;;
10029;SDS011;5055;52.054;8.524;2023-10-13T09:50:35;0.20;;;0.20;;
10029;SDS011;5055;52.054;8.524;2023-10-13T09:53:55;0.10;;;0.10;;
10029;SDS011;5055;52.054;8.524;2023-10-13T09:57:10;0.20;;;0.20;;
10029;SDS011;5055;52.054;8.524;2023-10-13T10:00:17;0.10;;;0.10;;
10029;SDS011;5055;52.054;8.524;2023-10-13T10:03:24;0.10;;;0.10;;
10029;SDS011;5055;52.054;8.524;2023-10-13T10:06:09;0.10;;;0.10;;
10029;SDS011;5055;52.054;8.524;2023-10-13T10:09:26;0.10;;;0.10;;
10029;SDS011;5055;52.054;8.524;2023-10-13T10:12:16;0.10;;;0.10;;
10029;SDS011;5055;52.054;8.524;2023-10-13T10:15:29;0.17;;;0.17;;
10029;SDS011;5055;52.054;8.524;2023-10-13T10:18:35;0.10;;;0.10;;
10029;SDS011;5055;52.054;8.524;2023-10-13T10:21:41;0.10;;;0.10;;
10029;SDS011;5055;52.054;8.524;2023-10-13T10:28:21;0.20;;;0.20;;
10029;SDS011;5055;52.054;8.524;2023-10-13T10:34:44;0.10;;;0.10;;
10029;SDS011;5055;52.054;8.524;2023-10-13T10:37:53;0.10;;;0.10;;
10029;SDS011;5055;52.054;8.524;2023-10-13T10:41:04;0.10;;;0.10;;
10029;SDS011;5055;52.054;8.524;2023-10-13T10:44:19;0.10;;;0.10;;
10029;SDS011;5055;52.054;8.524;2023-10-13T10:47:14;0.10;;;0.10;;
10029;SDS011;5055;52.054;8.524;2023-10-13T10:50:27;0.10;;;0.10;;
10029;SDS011;5055;52.054;8.524;2023-10-13T10:53:47;0.17;;;0.17;;
10029;SDS011;5055;52.054;8.524;2023-10-13T11:02:53;0.10;;;0.10;;
10029;SDS011;5055;52.054;8.524;2023-10-13T11:06:15;0.10;;;0.10;;
10029;SDS011;5055;52.054;8.524;2023-10-13T11:09:06;0.10;;;0.10;;
10029;SDS011;5055;52.054;8.524;2023-10-13T11:11:52;0.10;;;0.10;;
10029;SDS011;5055;52.054;8.524;2023-10-13T11:15:01;0.10;;;0.10;;
10029;SDS011;5055;52.054;8.524;2023-10-13T11:17:59;0.10;;;0.10;;
10029;SDS011;5055;52.054;8.524;2023-10-13T11:20:44;0.10;;;0.10;;
10029;SDS011;5055;52.054;8.524;2023-10-13T11:23:15;0.10;;;0.10;;
10029;SDS011;5055;52.054;8.524;2023-10-13T11:25:55;0.10;;;0.10;;
10029;SDS011;5055;52.054;8.524;2023-10-13T11:29:02;0.10;;;0.10;;
10029;SDS011;5055;52.054;8.524;2023-10-13T11:32:01;0.10;;;0.10;;
10029;SDS011;5055;52.054;8.524;2023-10-13T11:35:00;0.13;;;0.13;;
10029;SDS011;5055;52.054;8.524;2023-10-13T11:38:06;0.10;;;0.10;;
10029;SDS011;5055;52.054;8.524;2023-10-13T11:41:26;0.10;;;0.10;;
10029;SDS011;5055;52.054;8.524;2023-10-13T11:44:34;0.10;;;0.10;;
10029;SDS011;5055;52.054;8.524;2023-10-13T11:47:40;0.10;;;0.10;;
10029;SDS011;5055;52.054;8.524;2023-10-13T11:50:40;0.10;;;0.10;;
10029;SDS011;5055;52.054;8.524;2023-10-13T11:53:53;0.10;;;0.10;;
10029;SDS011;5055;52.054;8.524;2023-10-13T11:56:35;0.10;;;0.10;;
10029;SDS011;5055;52.054;8.524;2023-10-13T11:59:13;0.10;;;0.10;;
10029;SDS011;5055;52.054;8.524;2023-10-13T12:01:59;0.10;;;0.10;;
10029;SDS011;5055;52.054;8.524;2023-10-13T12:04:52;0.10;;;0.10;;
10029;SDS011;5055;52.054;8.524;2023-10-13T12:07:54;0.10;;;0.10;;
10029;SDS011;5055;52.054;8.524;2023-10-13T12:10:52;0.10;;;0.10;;
10029;SDS011;5055;52.054;8.524;2023-10-13T12:17:29;0.10;;;0.10;;
10029;SDS011;5055;52.054;8.524;2023-10-13T12:20:15;0.10;;;0.10;;
10029;SDS011;5055;52.054;8.524;2023-10-13T12:23:03;0.10;;;0.10;;
10029;SDS011;5055;52.054;8.524;2023-10-13T12:26:03;0.10;;;0.10;;
10029;SDS011;5055;52.054;8.524;2023-10-13T12:29:07;0.10;;;0.10;;
10029;SDS011;5055;52.054;8.524;2023-10-13T12:32:22;0.10;;;0.10;;
10029;SDS011;5055;52.054;8.524;2023-10-13T12:35:26;0.10;;;0.10;;
10029;SDS011;5055;52.054;8.524;2023-10-13T12:38:20;0.10;;;0.10;;
10029;SDS011;5055;52.054;8.524;2023-10-13T12:41:17;0.10;;;0.10;;
10029;SDS011;5055;52.054;8.524;2023-10-13T12:44:08;0.10;;;0.10;;
10029;SDS011;5055;52.054;8.524;2023-10-13T12:47:06;0.10;;;0.10;;
10029;SDS011;5055;52.054;8.524;2023-10-13T12:50:03;0.10;;;0.10;;
10029;SDS011;5055;52.054;8.524;2023-10-13T12:53:25;0.10;;;0.10;;
10029;SDS011;5055;52.054;8.524;2023-10-13T12:55:58;0.10;;;0.10;;
10029;SDS011;5055;52.054;8.524;2023-10-13T12:58:54;0.10;;;0.10;;
10029;SDS011;5055;52.054;8.524;2023-10-13T13:01:57;0.10;;;0.10;;
10029;SDS011;5055;52.054;8.524;2023-10-13T13:04:35;0.10;;;0.10;;
10029;SDS011;5055;52.054;8.524;2023-10-13T13:07:28;0.10;;;0.10;;
10029;SDS011;5055;52.054;8.524;2023-10-13T13:10:49;0.10;;;0.10;;
10029;SDS011;5055;52.054;8.524;2023-10-13T13:13:34;0.10;;;0.10;;
10029;SDS011;5055;52.054;8.524;2023-10-13T13:16:27;0.00;;;0.00;;
10029;SDS011;5055;52.054;8.524;2023-10-13T13:19:11;0.00;;;0.00;;
10029;SDS011;5055;52.054;8.524;2023-10-13T13:22:23;0.10;;;0.10;;
10029;SDS011;5055;52.054;8.524;2023-10-13T13:25:28;0.10;;;0.10;;
10029;SDS011;5055;52.054;8.524;2023-10-13T13:28:26;0.10;;;0.10;;
10029;SDS011;5055;52.054;8.524;2023-10-13T13:31:08;0.10;;;0.10;;
10029;SDS011;5055;52.054;8.524;2023-10-13T13:34:02;0.10;;;0.10;;
10029;SDS011;5055;52.054;8.524;2023-10-13T13:36:59;0.10;;;0.10;;
10029;SDS011;5055;52.054;8.524;2023-10-13T13:39:56;0.10;;;0.10;;
10029;SDS011;5055;52.054;8.524;2023-10-13T13:42:50;0.10;;;0.10;;
10029;SDS011;5055;52.054;8.524;2023-10-13T13:46:07;0.10;;;0.10;;
10029;SDS011;5055;52.054;8.524;2023-10-13T13:49:08;0.10;;;0.10;;
10029;SDS011;5055;52.054;8.524;2023-10-13T13:52:05;0.10;;;0.10;;
10029;SDS011;5055;52.054;8.524;2023-10-13T13:55:20;0.10;;;0.10;;
10029;SDS011;5055;52.054;8.524;2023-10-13T13:58:06;0.10;;;0.10;;
10029;SDS011;5055;52.054;8.524;2023-10-13T14:00:51;0.10;;;0.10;;
10029;SDS011;5055;52.054;8.524;2023-10-13T14:03:59;0.10;;;0.10;;
10029;SDS011;5055;52.054;8.524;2023-10-13T14:06:44;0.10;;;0.10;;
10029;SDS011;5055;52.054;8.524;2023-10-13T14:09:42;0.10;;;0.10;;
10029;SDS011;5055;52.054;8.524;2023-10-13T14:12:39;0.10;;;0.10;;
10029;SDS011;5055;52.054;8.524;2023-10-13T14:15:26;0.10;;;0.10;;
10029;SDS011;5055;52.054;8.524;2023-10-13T14:18:03;0.10;;;0.10;;
10029;SDS011;5055;52.054;8.524;2023-10-13T14:21:16;0.10;;;0.10;;
10029;SDS011;5055;52.054;8.524;2023-10-13T14:24:11;0.10;;;0.10;;
10029;SDS011;5055;52.054;8.524;2023-10-13T14:27:06;0.10;;;0.10;;
10029;SDS011;5055;52.054;8.524;2023-10-13T14:30:00;0.10;;;0.10;;
10029;SDS011;5055;52.054;8.524;2023-10-13T14:32:57;0.10;;;0.10;;
10029;SDS011;5055;52.054;8.524;2023-10-13T14:35:59;0.10;;;0.10;;
10029;SDS011;5055;52.054;8.524;2023-10-13T14:38:50;0.10;;;0.10;;
10029;SDS011;5055;52.054;8.524;2023-10-13T14:41:30;0.10;;;0.10;;
10029;SDS011;5055;52.054;8.524;2023-10-13T14:44:30;0.10;;;0.10;;
10029;SDS011;5055;52.054;8.524;2023-10-13T14:47:15;0.10;;;0.10;;
10029;SDS011;5055;52.054;8.524;2023-10-13T14:50:04;0.10;;;0.10;;
10029;SDS011;5055;52.054;8.524;2023-10-13T14:52:58;0.10;;;0.10;;
10029;SDS011;5055;52.054;8.524;2023-10-13T14:56:05;0.10;;;0.10;;
10029;SDS011;5055;52.054;8.524;2023-10-13T14:58:45;0.10;;;0.10;;
10029;SDS011;5055;52.054;8.524;2023-10-13T15:01:22;0.10;;;0.10;;
10029;SDS011;5055;52.054;8.524;2023-10-13T15:04:13;0.10;;;0.10;;
10029;SDS011;5055;52.054;8.524;2023-10-13T15:06:59;0.10;;;0.10;;
10029;SDS011;5055;52.054;8.524;2023-10-13T15:09:32;0.10;;;0.10;;
10029;SDS011;5055;52.054;8.524;2023-10-13T15:12:17;0.10;;;0.10;;
10029;SDS011;5055;52.054;8.524;2023-10-13T15:15:04;0.10;;;0.10;;
10029;SDS011;5055;52.054;8.524;2023-10-13T15:17:49;0.10;;;0.10;;
10029;SDS011;5055;52.054;8.524;2023-10-13T15:20:41;0.20;;;0.20;;
10029;SDS011;5055;52.054;8.524;2023-10-13T15:23:25;0.10;;;0.10;;
10029;SDS011;5055;52.054;8.524;2023-10-13T15:26:31;0.10;;;0.10;;
10029;SDS011;5055;52.054;8.524;2023-10-13T15:32:19;0.20;;;0.20;;
10029;SDS011;5055;52.054;8.524;2023-10-13T15:35:26;0.10;;;0.10;;
10029;SDS011;5055;52.054;8.524;2023-10-13T15:38:36;0.10;;;0.10;;
10029;SDS011;5055;52.054;8.524;2023-10-13T15:41:30;0.10;;;0.10;;
10029;SDS011;5055;52.054;8.524;2023-10-13T15:44:25;0.10;;;0.10;;
10029;SDS011;5055;52.054;8.524;2023-10-13T15:50:46;0.10;;;0.10;;
10029;SDS011;5055;52.054;8.524;2023-10-13T15:53:38;0.10;;;0.10;;
10029;SDS011;5055;52.054;8.524;2023-10-13T15:56:34;0.10;;;0.10;;
10029;SDS011;5055;52.054;8.524;2023-10-13T15:59:29;0.10;;;0.10;;
10029;SDS011;5055;52.054;8.524;2023-10-13T16:02:20;0.10;;;0.10;;
10029;SDS011;5055;52.054;8.524;2023-10-13T16:05:13;0.10;;;0.10;;
10029;SDS011;5055;52.054;8.524;2023-10-13T16:08:02;0.10;;;0.10;;
10029;SDS011;5055;52.054;8.524;2023-10-13T16:10:43;0.10;;;0.10;;
10029;SDS011;5055;52.054;8.524;2023-10-13T16:13:33;0.10;;;0.10;;
10029;SDS011;5055;52.054;8.524;2023-10-13T16:16:21;0.10;;;0.10;;
10029;SDS011;5055;52.054;8.524;2023-10-13T16:19:23;0.10;;;0.10;;
10029;SDS011;5055;52.054;8.524;2023-10-13T16:25:09;0.10;;;0.10;;
10029;SDS011;5055;52.054;8.524;2023-10-13T16:28:02;0.10;;;0.10;;
10029;SDS011;5055;52.054;8.524;2023-10-13T16:31:03;0.10;;;0.10;;
10029;SDS011;5055;52.054;8.524;2023-10-13T16:33:53;0.10;;;0.10;;
10029;SDS011;5055;52.054;8.524;2023-10-13T16:36:52;0.10;;;0.10;;
10029;SDS011;5055;52.054;8.524;2023-10-13T16:40:02;0.10;;;0.10;;
10029;SDS011;5055;52.054;8.524;2023-10-13T16:42:52;0.10;;;0.10;;
10029;SDS011;5055;52.054;8.524;2023-10-13T16:45:29;0.10;;;0.10;;
10029;SDS011;5055;52.054;8.524;2023-10-13T16:48:29;0.10;;;0.10;;
10029;SDS011;5055;52.054;8.524;2023-10-13T16:51:03;0.10;;;0.10;;
10029;SDS011;5055;52.054;8.524;2023-10-13T16:53:49;0.10;;;0.10;;
10029;SDS011;5055;52.054;8.524;2023-10-13T16:56:46;0.20;;;0.20;;
10029;SDS011;5055;52.054;8.524;2023-10-13T16:59:43;0.10;;;0.10;;
10029;SDS011;5055;52.054;8.524;2023-10-13T17:02:51;0.10;;;0.10;;
10029;SDS011;5055;52.054;8.524;2023-10-13T17:05:26;0.10;;;0.10;;
10029;SDS011;5055;52.054;8.524;2023-10-13T17:08:20;0.10;;;0.10;;
10029;SDS011;5055;52.054;8.524;2023-10-13T17:11:48;0.10;;;0.10;;
10029;SDS011;5055;52.054;8.524;2023-10-13T17:14:56;0.10;;;0.10;;
10029;SDS011;5055;52.054;8.524;2023-10-13T17:17:43;0.10;;;0.10;;
10029;SDS011;5055;52.054;8.524;2023-10-13T17:20:39;0.10;;;0.10;;
10029;SDS011;5055;52.054;8.524;2023-10-13T17:23:47;0.10;;;0.10;;
10029;SDS011;5055;52.054;8.524;2023-10-13T17:26:26;0.10;;;0.10;;
10029;SDS011;5055;52.054;8.524;2023-10-13T17:29:55;0.10;;;0.10;;
10029;SDS011;5055;52.054;8.524;2023-10-13T17:33:09;0.10;;;0.10;;
10029;SDS011;5055;52.054;8.524;2023-10-13T17:35:45;0.10;;;0.10;;
10029;SDS011;5055;52.054;8.524;2023-10-13T17:38:17;0.10;;;0.10;;
10029;SDS011;5055;52.054;8.524;2023-10-13T17:41:21;0.10;;;0.10;;
10029;SDS011;5055;52.054;8.524;2023-10-13T17:44:11;0.17;;;0.17;;
10029;SDS011;5055;52.054;8.524;2023-10-13T17:46:55;0.20;;;0.20;;
10029;SDS011;5055;52.054;8.524;2023-10-13T17:49:53;0.10;;;0.10;;
10029;SDS011;5055;52.054;8.524;2023-10-13T17:52:30;0.10;;;0.10;;
10029;SDS011;5055;52.054;8.524;2023-10-13T17:55:36;0.10;;;0.10;;
10029;SDS011;5055;52.054;8.524;2023-10-13T17:58:18;0.10;;;0.10;;
10029;SDS011;5055;52.054;8.524;2023-10-13T18:01:06;0.10;;;0.10;;
10029;SDS011;5055;52.054;8.524;2023-10-13T18:03:55;0.10;;;0.10;;
10029;SDS011;5055;52.054;8.524;2023-10-13T18:06:47;0.10;;;0.10;;
10029;SDS011;5055;52.054;8.524;2023-10-13T18:09:26;0.10;;;0.10;;
10029;SDS011;5055;52.054;8.524;2023-10-13T18:12:12;0.10;;;0.10;;
10029;SDS011;5055;52.054;8.524;2023-10-13T18:14:56;0.10;;;0.10;;
10029;SDS011;5055;52.054;8.524;2023-10-13T18:17:31;0.10;;;0.10;;
10029;SDS011;5055;52.054;8.524;2023-10-13T18:20:26;0.20;;;0.20;;
10029;SDS011;5055;52.054;8.524;2023-10-13T18:22:58;0.10;;;0.10;;
10029;SDS011;5055;52.054;8.524;2023-10-13T18:25:38;0.10;;;0.10;;
10029;SDS011;5055;52.054;8.524;2023-10-13T18:28:12;0.10;;;0.10;;
10029;SDS011;5055;52.054;8.524;2023-10-13T18:31:06;0.10;;;0.10;;
10029;SDS011;5055;52.054;8.524;2023-10-13T18:33:52;0.20;;;0.20;;
10029;SDS011;5055;52.054;8.524;2023-10-13T18:36:47;0.20;;;0.20;;
10029;SDS011;5055;52.054;8.524;2023-10-13T18:39:21;0.17;;;0.17;;
10029;SDS011;5055;52.054;8.524;2023-10-13T18:42:08;0.10;;;0.10;;
10029;SDS011;5055;52.054;8.524;2023-10-13T18:44:41;0.20;;;0.20;;
10029;SDS011;5055;52.054;8.524;2023-10-13T18:47:26;0.10;;;0.10;;
10029;SDS011;5055;52.054;8.524;2023-10-13T18:50:19;0.10;;;0.10;;
10029;SDS011;5055;52.054;8.524;2023-10-13T18:56:08;0.20;;;0.20;;
10029;SDS011;5055;52.054;8.524;2023-10-13T18:58:53;0.10;;;0.10;;
10029;SDS011;5055;52.054;8.524;2023-10-13T19:01:31;0.20;;;0.20;;
10029;SDS011;5055;52.054;8.524;2023-10-13T19:04:19;0.20;;;0.20;;
10029;SDS011;5055;52.054;8.524;2023-10-13T19:07:08;0.17;;;0.17;;
10029;SDS011;5055;52.054;8.524;2023-10-13T19:10:06;0.20;;;0.20;;
10029;SDS011;5055;52.054;8.524;2023-10-13T19:12:53;0.20;;;0.20;;
10029;SDS011;5055;52.054;8.524;2023-10-13T19:15:38;0.10;;;0.10;;
10029;SDS011;5055;52.054;8.524;2023-10-13T19:18:23;0.10;;;0.10;;
10029;SDS011;5055;52.054;8.524;2023-10-13T19:21:05;0.20;;;0.20;;
10029;SDS011;5055;52.054;8.524;2023-10-13T19:23:54;0.10;;;0.10;;
10029;SDS011;5055;52.054;8.524;2023-10-13T19:26:28;0.10;;;0.10;;
10029;SDS011;5055;52.054;8.524;2023-10-13T19:29:12;0.10;;;0.10;;